Time;durP1;ratioP1;P1;durP2;ratioP2;P2;SDS_P1;SDS_P2;PMS_P1;PMS_P2;Temp;Humidity;BMP_temperature;BMP_pressure;BME280_temperature;BME280_humidity;BME280_pressure;Samples;Min_cycle;Max_cycle;Signal;HPM_P1;HPM_P2
2021/03/06 00:00:21;;;;;;;4.47;2.70;;;;;;;;;;5000620;28;20042;-50
2021/03/06 00:02:47;;;;;;;4.22;2.15;;;;;;;;;;4996657;28;20057;-50
2021/03/06 00:05:12;;;;;;;3.85;2.20;;;;;;;;;;5001144;28;20450;-50
2021/03/06 00:07:37;;;;;;;3.25;2.30;;;;;;;;;;5011788;28;20061;-49
2021/03/06 00:10:04;;;;;;;3.53;2.60;;;;;;;;;;4999484;28;20026;-50
2021/03/06 00:12:30;;;;;;;4.88;2.38;;;;;;;;;;4996489;28;20034;-51
2021/03/06 00:14:55;;;;;;;5.72;2.30;;;;;;;;;;4998113;28;20402;-50
2021/03/06 00:17:20;;;;;;;3.33;2.10;;;;;;;;;;5004142;28;20032;-50
2021/03/06 00:19:46;;;;;;;3.22;2.50;;;;;;;;;;4995586;28;20768;-50
2021/03/06 00:22:11;;;;;;;4.75;2.63;;;;;;;;;;5000355;28;20022;-50
2021/03/06 00:24:36;;;;;;;3.13;2.22;;;;;;;;;;4996080;28;20028;-50
2021/03/06 00:27:02;;;;;;;6.68;2.17;;;;;;;;;;4996031;28;20046;-50
2021/03/06 00:29:27;;;;;;;3.75;2.22;;;;;;;;;;4994876;28;20030;-50
2021/03/06 00:31:53;;;;;;;4.75;2.50;;;;;;;;;;4993818;28;20022;-49
2021/03/06 00:34:18;;;;;;;3.85;2.40;;;;;;;;;;5000265;28;20405;-49
2021/03/06 00:36:43;;;;;;;7.45;2.58;;;;;;;;;;4996103;28;20030;-50
2021/03/06 00:39:09;;;;;;;3.08;2.45;;;;;;;;;;4993965;28;20049;-49
2021/03/06 00:41:34;;;;;;;4.30;2.55;;;;;;;;;;4995043;28;20026;-49
2021/03/06 00:44:00;;;;;;;4.35;2.53;;;;;;;;;;4997784;28;20018;-49
2021/03/06 00:46:25;;;;;;;4.68;2.33;;;;;;;;;;5002034;28;20482;-49
2021/03/06 00:48:51;;;;;;;3.92;2.38;;;;;;;;;;5004347;28;20567;-53
2021/03/06 00:51:16;;;;;;;4.10;2.40;;;;;;;;;;4995804;28;20068;-50
2021/03/06 00:53:42;;;;;;;3.80;2.70;;;;;;;;;;4995378;28;20476;-50
2021/03/06 00:56:07;;;;;;;4.72;2.13;;;;;;;;;;4992657;28;20030;-50
2021/03/06 00:58:32;;;;;;;3.03;2.30;;;;;;;;;;4998223;28;20038;-50
2021/03/06 01:00:58;;;;;;;2.97;2.53;;;;;;;;;;4995559;28;20026;-49
2021/03/06 01:03:23;;;;;;;3.33;2.35;;;;;;;;;;4995642;28;20117;-50
2021/03/06 01:05:49;;;;;;;4.32;2.35;;;;;;;;;;4995330;28;20129;-50
2021/03/06 01:08:14;;;;;;;3.95;2.42;;;;;;;;;;4991779;28;20028;-50
2021/03/06 01:10:41;;;;;;;6.10;2.30;;;;;;;;;;5000199;28;20018;-50
2021/03/06 01:13:07;;;;;;;3.30;2.15;;;;;;;;;;4999291;28;20442;-50
2021/03/06 01:15:32;;;;;;;2.42;2.20;;;;;;;;;;4994833;28;20026;-50
2021/03/06 01:17:58;;;;;;;2.80;2.40;;;;;;;;;;4994953;28;20030;-50
2021/03/06 01:20:23;;;;;;;3.75;2.50;;;;;;;;;;4993322;28;20105;-50
2021/03/06 01:22:49;;;;;;;3.35;2.38;;;;;;;;;;4994269;28;20042;-50
2021/03/06 01:25:14;;;;;;;5.07;2.40;;;;;;;;;;4994850;28;20045;-50
2021/03/06 01:27:40;;;;;;;4.10;2.20;;;;;;;;;;4999062;28;20030;-50
2021/03/06 01:30:06;;;;;;;3.15;2.45;;;;;;;;;;4995289;28;20470;-50
2021/03/06 01:32:31;;;;;;;3.53;2.15;;;;;;;;;;4993821;28;20033;-50
2021/03/06 01:34:57;;;;;;;4.05;2.33;;;;;;;;;;4993400;28;20022;-50
2021/03/06 01:37:22;;;;;;;2.28;2.00;;;;;;;;;;4994573;28;20026;-51
2021/03/06 01:39:47;;;;;;;3.05;2.38;;;;;;;;;;4994898;28;20506;-49
2021/03/06 01:42:13;;;;;;;2.58;2.20;;;;;;;;;;5006939;28;20033;-50
2021/03/06 01:44:38;;;;;;;2.97;2.25;;;;;;;;;;4994923;28;20053;-50
2021/03/06 01:47:04;;;;;;;2.80;2.03;;;;;;;;;;4992057;28;20033;-50
2021/03/06 01:49:29;;;;;;;2.97;2.20;;;;;;;;;;4998719;28;20394;-49
2021/03/06 01:51:58;;;;;;;2.60;2.35;;;;;;;;;;4993571;28;20048;-50
2021/03/06 01:54:25;;;;;;;4.15;2.65;;;;;;;;;;4994882;28;20042;-54
2021/03/06 01:56:51;;;;;;;4.82;2.38;;;;;;;;;;4991347;28;20426;-50
2021/03/06 01:59:16;;;;;;;2.85;2.20;;;;;;;;;;4999702;28;20030;-53
2021/03/06 02:01:42;;;;;;;2.78;2.30;;;;;;;;;;5005696;28;20544;-50
2021/03/06 02:04:07;;;;;;;3.55;2.30;;;;;;;;;;5002234;28;20037;-50
2021/03/06 02:06:32;;;;;;;2.75;2.40;;;;;;;;;;4993139;28;20093;-50
2021/03/06 02:08:58;;;;;;;3.97;2.55;;;;;;;;;;5009484;28;20373;-50
2021/03/06 02:11:54;;;;;;;3.13;2.30;;;;;;;;;;4998379;28;20504;-49
2021/03/06 02:14:42;;;;;;;4.15;2.35;;;;;;;;;;5007019;28;20029;-49
2021/03/06 02:17:12;;;;;;;3.25;2.35;;;;;;;;;;5006471;28;20037;-49
2021/03/06 02:20:19;;;;;;;2.58;2.38;;;;;;;;;;4997475;28;20042;-50
2021/03/06 02:23:00;;;;;;;2.72;2.45;;;;;;;;;;5028651;28;20525;-50
2021/03/06 02:25:52;;;;;;;3.42;2.67;;;;;;;;;;5026918;28;20064;-49
2021/03/06 02:28:35;;;;;;;3.30;2.17;;;;;;;;;;5026903;28;20037;-49
2021/03/06 02:31:00;;;;;;;2.60;2.20;;;;;;;;;;5026296;28;20030;-49
2021/03/06 02:33:26;;;;;;;2.83;2.20;;;;;;;;;;4989707;28;20061;-50
2021/03/06 02:35:52;;;;;;;4.00;2.10;;;;;;;;;;5027063;28;20026;-50
2021/03/06 02:38:17;;;;;;;2.58;2.13;;;;;;;;;;5008752;28;20474;-50
2021/03/06 02:40:43;;;;;;;4.35;2.90;;;;;;;;;;5011832;28;20047;-50
2021/03/06 02:43:09;;;;;;;3.35;2.13;;;;;;;;;;5010083;28;20048;-50
2021/03/06 02:45:35;;;;;;;3.33;2.25;;;;;;;;;;5010431;28;20031;-50
2021/03/06 02:48:01;;;;;;;2.60;2.28;;;;;;;;;;5026227;28;20485;-49
2021/03/06 02:50:26;;;;;;;3.28;2.20;;;;;;;;;;5026694;28;20052;-49
2021/03/06 02:52:51;;;;;;;3.05;2.30;;;;;;;;;;5028273;28;20044;-50
2021/03/06 02:55:17;;;;;;;2.75;2.33;;;;;;;;;;5026756;28;20034;-50
2021/03/06 02:58:14;;;;;;;2.97;2.50;;;;;;;;;;5027104;28;20028;-50
2021/03/06 03:00:52;;;;;;;6.13;2.08;;;;;;;;;;5004345;28;20049;-50
2021/03/06 03:03:39;;;;;;;2.47;2.25;;;;;;;;;;4992475;28;20034;-49
2021/03/06 03:06:15;;;;;;;3.90;2.20;;;;;;;;;;5001489;28;20431;-50
2021/03/06 03:09:00;;;;;;;3.03;2.10;;;;;;;;;;4991667;28;20105;-50
2021/03/06 03:11:54;;;;;;;5.50;2.25;;;;;;;;;;5006942;28;20065;-50
2021/03/06 03:14:24;;;;;;;2.10;1.90;;;;;;;;;;5001719;28;20049;-52
2021/03/06 03:16:51;;;;;;;4.15;1.92;;;;;;;;;;5007607;28;20572;-50
2021/03/06 03:19:29;;;;;;;2.35;2.08;;;;;;;;;;5014187;28;20033;-49
2021/03/06 03:21:54;;;;;;;3.72;2.28;;;;;;;;;;5008050;28;20027;-48
2021/03/06 03:24:20;;;;;;;2.42;2.00;;;;;;;;;;5008958;28;20040;-49
2021/03/06 03:26:47;;;;;;;2.25;1.88;;;;;;;;;;5011960;28;20030;-50
2021/03/06 03:29:13;;;;;;;2.30;2.10;;;;;;;;;;4999742;28;20042;-49
2021/03/06 03:31:38;;;;;;;3.47;2.05;;;;;;;;;;4997260;28;20022;-50
2021/03/06 03:34:04;;;;;;;4.40;2.10;;;;;;;;;;5000595;28;20459;-50
2021/03/06 03:36:29;;;;;;;3.08;2.13;;;;;;;;;;4983986;28;20140;-50
2021/03/06 03:38:54;;;;;;;3.55;2.30;;;;;;;;;;4980587;28;20041;-50
2021/03/06 03:41:20;;;;;;;3.50;2.25;;;;;;;;;;5012338;28;20113;-48
2021/03/06 03:43:45;;;;;;;2.55;2.15;;;;;;;;;;4995568;28;20038;-50
2021/03/06 03:46:10;;;;;;;2.60;1.90;;;;;;;;;;5001840;28;20040;-49
2021/03/06 03:48:37;;;;;;;2.80;1.98;;;;;;;;;;5023626;28;20030;-50
2021/03/06 03:51:02;;;;;;;2.20;2.00;;;;;;;;;;4982456;28;20022;-50
2021/03/06 03:53:28;;;;;;;3.42;2.20;;;;;;;;;;5012039;28;20042;-50
2021/03/06 03:55:53;;;;;;;4.07;2.35;;;;;;;;;;4995537;28;20089;-50
2021/03/06 03:58:19;;;;;;;2.13;1.92;;;;;;;;;;5006238;28;20029;-49
2021/03/06 04:00:44;;;;;;;2.45;2.08;;;;;;;;;;5021726;28;20482;-50
2021/03/06 04:03:10;;;;;;;2.92;2.53;;;;;;;;;;5008062;28;20045;-50
2021/03/06 04:05:35;;;;;;;2.40;2.20;;;;;;;;;;4995056;28;20052;-50
2021/03/06 04:08:00;;;;;;;2.42;2.15;;;;;;;;;;4994645;28;20022;-50
2021/03/06 04:10:26;;;;;;;2.80;2.20;;;;;;;;;;5001771;28;20035;-50
2021/03/06 04:12:52;;;;;;;3.28;2.05;;;;;;;;;;5000763;28;20073;-50
2021/03/06 04:15:19;;;;;;;2.67;2.40;;;;;;;;;;5000267;28;20034;-50
2021/03/06 04:17:44;;;;;;;2.88;2.00;;;;;;;;;;4996010;28;20057;-51
2021/03/06 04:20:11;;;;;;;2.60;2.08;;;;;;;;;;5008172;28;20029;-50
2021/03/06 04:22:37;;;;;;;2.20;2.00;;;;;;;;;;4999335;28;20050;-50
2021/03/06 04:25:03;;;;;;;2.13;1.92;;;;;;;;;;5000445;28;20109;-49
2021/03/06 04:27:29;;;;;;;3.22;2.25;;;;;;;;;;4995854;28;20034;-48
2021/03/06 04:29:54;;;;;;;4.00;2.03;;;;;;;;;;4996093;28;20101;-50
2021/03/06 04:32:19;;;;;;;3.00;2.10;;;;;;;;;;4992805;28;20030;-50
2021/03/06 04:34:45;;;;;;;3.05;2.00;;;;;;;;;;4999539;28;20386;-50
2021/03/06 04:37:10;;;;;;;2.78;2.40;;;;;;;;;;5007813;28;20041;-50
2021/03/06 04:39:35;;;;;;;2.65;2.13;;;;;;;;;;5003869;28;20161;-50
2021/03/06 04:42:01;;;;;;;3.58;2.33;;;;;;;;;;4996172;28;20036;-49
2021/03/06 04:44:26;;;;;;;3.80;2.30;;;;;;;;;;5007586;28;20030;-50
2021/03/06 04:46:52;;;;;;;2.00;1.80;;;;;;;;;;4999693;28;20025;-50
2021/03/06 04:49:17;;;;;;;2.47;1.90;;;;;;;;;;4997948;28;20030;-50
2021/03/06 04:51:43;;;;;;;3.88;2.10;;;;;;;;;;4995883;28;20037;-50
2021/03/06 04:54:08;;;;;;;4.20;2.22;;;;;;;;;;4995737;28;20053;-50
2021/03/06 04:56:34;;;;;;;4.03;1.90;;;;;;;;;;5009458;28;20125;-50
2021/03/06 04:58:59;;;;;;;2.90;2.00;;;;;;;;;;5010594;28;20014;-50
2021/03/06 05:01:24;;;;;;;2.78;2.00;;;;;;;;;;5001057;28;20076;-50
2021/03/06 05:03:50;;;;;;;3.28;2.20;;;;;;;;;;4999641;28;20026;-50
2021/03/06 05:06:15;;;;;;;2.75;2.28;;;;;;;;;;4998812;28;20395;-49
2021/03/06 05:08:40;;;;;;;3.17;2.30;;;;;;;;;;4993083;28;20026;-49
2021/03/06 05:11:06;;;;;;;6.57;2.03;;;;;;;;;;5014696;28;20030;-51
2021/03/06 05:13:32;;;;;;;4.40;2.10;;;;;;;;;;4994676;28;20077;-49
2021/03/06 05:15:57;;;;;;;2.67;2.00;;;;;;;;;;4999481;28;20536;-49
2021/03/06 05:18:23;;;;;;;3.08;1.90;;;;;;;;;;4994710;28;20057;-50
2021/03/06 05:20:48;;;;;;;4.18;2.10;;;;;;;;;;4993260;28;20079;-49
2021/03/06 05:23:14;;;;;;;3.80;2.00;;;;;;;;;;5007017;28;20026;-50
2021/03/06 05:25:39;;;;;;;2.40;2.03;;;;;;;;;;5006522;28;20030;-50
2021/03/06 05:28:05;;;;;;;2.38;2.13;;;;;;;;;;4998725;28;20029;-50
2021/03/06 05:30:30;;;;;;;3.67;2.00;;;;;;;;;;4996867;28;20034;-51
2021/03/06 05:32:55;;;;;;;2.65;2.08;;;;;;;;;;5008560;28;20034;-49
2021/03/06 05:35:21;;;;;;;2.58;1.83;;;;;;;;;;4999742;28;20095;-50
2021/03/06 05:37:46;;;;;;;3.22;1.90;;;;;;;;;;4994492;28;20449;-49
2021/03/06 05:40:12;;;;;;;2.67;2.20;;;;;;;;;;4998957;28;20612;-49
2021/03/06 05:42:37;;;;;;;3.67;1.90;;;;;;;;;;4998864;28;20023;-50
2021/03/06 05:45:05;;;;;;;4.00;2.30;;;;;;;;;;4993977;28;20056;-50
2021/03/06 05:47:30;;;;;;;3.38;1.80;;;;;;;;;;4991894;28;20042;-50
2021/03/06 05:49:55;;;;;;;2.95;2.10;;;;;;;;;;5006659;28;20486;-48
2021/03/06 05:52:21;;;;;;;2.88;2.10;;;;;;;;;;4996232;28;20030;-50
2021/03/06 05:54:48;;;;;;;3.97;1.98;;;;;;;;;;4997237;28;20401;-49
2021/03/06 05:57:13;;;;;;;2.80;1.90;;;;;;;;;;5004856;28;20065;-50
2021/03/06 05:59:38;;;;;;;2.00;1.80;;;;;;;;;;5016114;28;20500;-49
2021/03/06 06:02:04;;;;;;;3.17;1.98;;;;;;;;;;4995226;28;20022;-50
2021/03/06 06:04:29;;;;;;;1.90;1.67;;;;;;;;;;4994626;28;20030;-49
2021/03/06 06:06:55;;;;;;;3.50;1.90;;;;;;;;;;4997492;28;20042;-50
2021/03/06 06:09:21;;;;;;;2.85;1.95;;;;;;;;;;4976113;28;20037;-50
2021/03/06 06:11:46;;;;;;;2.00;1.67;;;;;;;;;;4991676;28;20033;-49
2021/03/06 06:14:12;;;;;;;2.22;1.65;;;;;;;;;;5024698;28;20044;-50
2021/03/06 06:16:37;;;;;;;2.55;2.00;;;;;;;;;;5001511;28;20030;-49
2021/03/06 06:19:04;;;;;;;2.15;1.80;;;;;;;;;;5004154;28;20018;-50
2021/03/06 06:21:43;;;;;;;2.63;1.60;;;;;;;;;;5007201;28;20113;-50
2021/03/06 06:24:11;;;;;;;2.80;2.03;;;;;;;;;;4998228;28;20545;-49
2021/03/06 06:26:37;;;;;;;2.50;2.05;;;;;;;;;;5008542;28;20038;-50
2021/03/06 06:29:02;;;;;;;2.42;1.90;;;;;;;;;;4997814;28;20045;-49
2021/03/06 06:31:28;;;;;;;2.72;1.90;;;;;;;;;;4998952;28;20030;-50
2021/03/06 06:33:53;;;;;;;3.90;2.00;;;;;;;;;;4998602;28;20031;-50
2021/03/06 06:36:38;;;;;;;1.85;1.75;;;;;;;;;;4994106;28;20041;-50
2021/03/06 06:39:03;;;;;;;3.05;2.03;;;;;;;;;;5005711;28;20030;-50
2021/03/06 06:41:55;;;;;;;4.82;2.25;;;;;;;;;;5006863;28;20072;-50
2021/03/06 06:44:21;;;;;;;4.25;1.98;;;;;;;;;;5004019;28;20072;-50
2021/03/06 06:46:46;;;;;;;6.88;2.00;;;;;;;;;;4998366;28;20077;-50
2021/03/06 06:49:12;;;;;;;2.60;1.88;;;;;;;;;;5007892;28;20486;-50
2021/03/06 06:51:37;;;;;;;3.70;2.10;;;;;;;;;;4986320;28;20383;-50
2021/03/06 06:54:10;;;;;;;5.90;2.08;;;;;;;;;;5001874;28;20023;-50
2021/03/06 06:56:35;;;;;;;2.30;2.10;;;;;;;;;;4993048;28;20033;-50
2021/03/06 06:59:05;;;;;;;2.58;1.95;;;;;;;;;;5004315;28;20026;-50
2021/03/06 07:01:30;;;;;;;3.85;1.60;;;;;;;;;;5004914;28;20030;-48
2021/03/06 07:04:08;;;;;;;3.53;1.95;;;;;;;;;;5008292;28;20474;-50
2021/03/06 07:06:34;;;;;;;5.07;2.40;;;;;;;;;;5008732;28;20038;-49
2021/03/06 07:09:13;;;;;;;2.45;1.92;;;;;;;;;;4994927;28;20045;-48
2021/03/06 07:11:40;;;;;;;2.75;1.90;;;;;;;;;;5016177;28;20025;-50
2021/03/06 07:14:06;;;;;;;3.83;2.17;;;;;;;;;;4994942;28;20066;-50
2021/03/06 07:16:54;;;;;;;2.30;2.10;;;;;;;;;;5003643;28;20060;-50
2021/03/06 07:19:19;;;;;;;3.13;2.10;;;;;;;;;;5012769;28;20026;-51
2021/03/06 07:21:48;;;;;;;6.60;2.33;;;;;;;;;;5011367;28;20033;-50
2021/03/06 07:24:14;;;;;;;4.35;2.25;;;;;;;;;;5010326;28;20087;-51
2021/03/06 07:26:39;;;;;;;5.07;2.28;;;;;;;;;;5012617;28;20026;-50
2021/03/06 07:29:05;;;;;;;9.65;2.72;;;;;;;;;;5000779;28;20045;-51
2021/03/06 07:31:30;;;;;;;6.40;3.30;;;;;;;;;;5005655;28;20556;-49
2021/03/06 07:33:56;;;;;;;10.10;3.33;;;;;;;;;;4989609;28;20038;-50
2021/03/06 07:36:21;;;;;;;6.30;3.10;;;;;;;;;;5021384;28;20064;-48
2021/03/06 07:38:46;;;;;;;8.57;3.33;;;;;;;;;;5003810;28;20052;-48
2021/03/06 07:41:12;;;;;;;19.75;3.58;;;;;;;;;;5011787;28;20022;-48
2021/03/06 07:43:37;;;;;;;4.35;2.30;;;;;;;;;;4989247;28;20483;-49
2021/03/06 07:46:03;;;;;;;9.60;2.92;;;;;;;;;;4982672;28;20030;-49
2021/03/06 07:48:33;;;;;;;8.00;3.00;;;;;;;;;;5001872;28;20035;-49
2021/03/06 07:50:58;;;;;;;7.85;2.22;;;;;;;;;;5011835;28;20148;-49
2021/03/06 07:53:25;;;;;;;6.68;2.75;;;;;;;;;;5010429;28;21629;-50
2021/03/06 07:55:50;;;;;;;7.80;2.92;;;;;;;;;;4995946;28;20022;-49
2021/03/06 07:58:17;;;;;;;5.13;2.70;;;;;;;;;;5008678;28;20567;-49
2021/03/06 08:01:02;;;;;;;4.95;2.83;;;;;;;;;;5008262;28;20037;-50
2021/03/06 08:03:28;;;;;;;16.58;7.90;;;;;;;;;;4999770;28;20045;-50
2021/03/06 08:06:21;;;;;;;9.52;3.00;;;;;;;;;;5010196;28;20049;-50
2021/03/06 08:08:46;;;;;;;9.00;4.03;;;;;;;;;;5001421;28;20041;-50
2021/03/06 08:11:12;;;;;;;14.88;4.05;;;;;;;;;;5011820;28;20026;-50
2021/03/06 08:13:47;;;;;;;8.70;4.72;;;;;;;;;;5009845;28;20041;-50
2021/03/06 08:16:24;;;;;;;7.88;4.45;;;;;;;;;;5003711;28;20088;-51
2021/03/06 08:18:53;;;;;;;9.38;4.78;;;;;;;;;;5006196;28;20579;-49
2021/03/06 08:21:50;;;;;;;8.52;5.45;;;;;;;;;;4997466;28;20128;-50
2021/03/06 08:24:15;;;;;;;9.60;4.72;;;;;;;;;;5010358;28;20506;-49
2021/03/06 08:27:01;;;;;;;7.60;3.72;;;;;;;;;;5010356;28;20108;-50
2021/03/06 08:29:27;;;;;;;9.95;5.78;;;;;;;;;;5009718;28;20029;-50
2021/03/06 08:32:06;;;;;;;13.70;6.57;;;;;;;;;;5010489;28;20026;-50
2021/03/06 08:34:53;;;;;;;6.90;2.97;;;;;;;;;;5008172;28;20558;-49
2021/03/06 08:37:25;;;;;;;6.93;4.05;;;;;;;;;;5005114;28;20025;-50
2021/03/06 08:40:07;;;;;;;7.18;4.60;;;;;;;;;;5004233;28;20038;-50
2021/03/06 08:42:37;;;;;;;10.05;5.70;;;;;;;;;;5023049;28;20034;-50
2021/03/06 08:45:05;;;;;;;13.20;7.03;;;;;;;;;;5008319;28;20401;-50
2021/03/06 08:47:33;;;;;;;10.40;5.10;;;;;;;;;;4995140;28;20293;-50
2021/03/06 08:49:59;;;;;;;7.72;3.85;;;;;;;;;;5011189;28;20094;-50
2021/03/06 08:52:28;;;;;;;9.52;6.35;;;;;;;;;;5012216;28;20044;-49
2021/03/06 08:54:54;;;;;;;9.73;6.15;;;;;;;;;;5006242;28;20430;-49
2021/03/06 08:57:31;;;;;;;9.82;5.07;;;;;;;;;;5004790;28;20044;-50
2021/03/06 08:59:56;;;;;;;9.60;6.22;;;;;;;;;;5001642;28;20072;-48
2021/03/06 09:02:29;;;;;;;8.35;3.72;;;;;;;;;;5008030;28;20060;-50
2021/03/06 09:05:04;;;;;;;10.77;5.70;;;;;;;;;;5001215;28;20021;-49
2021/03/06 09:07:40;;;;;;;8.45;5.15;;;;;;;;;;4996559;28;20402;-49
2021/03/06 09:10:19;;;;;;;10.70;5.10;;;;;;;;;;5003706;28;20030;-49
2021/03/06 09:12:46;;;;;;;7.43;3.95;;;;;;;;;;5006383;28;20375;-50
2021/03/06 09:15:11;;;;;;;8.07;5.13;;;;;;;;;;5007241;28;20808;-50
2021/03/06 09:17:37;;;;;;;9.55;5.35;;;;;;;;;;4994826;28;20022;-50
2021/03/06 09:20:07;;;;;;;12.95;8.10;;;;;;;;;;5007728;28;20037;-50
2021/03/06 09:22:42;;;;;;;12.93;6.75;;;;;;;;;;5003838;28;20461;-50
2021/03/06 09:25:08;;;;;;;9.07;6.40;;;;;;;;;;5010528;28;20036;-49
2021/03/06 09:27:46;;;;;;;9.52;6.68;;;;;;;;;;5007407;28;20045;-49
2021/03/06 09:30:29;;;;;;;11.30;6.60;;;;;;;;;;5006349;28;20034;-50
2021/03/06 09:32:55;;;;;;;12.05;6.03;;;;;;;;;;4996653;28;20021;-49
2021/03/06 09:35:20;;;;;;;8.85;4.80;;;;;;;;;;5002783;28;20372;-50
2021/03/06 09:37:46;;;;;;;9.48;5.65;;;;;;;;;;5014546;28;20044;-50
2021/03/06 09:40:22;;;;;;;10.95;4.57;;;;;;;;;;4998313;28;20089;-50
2021/03/06 09:42:51;;;;;;;10.95;7.22;;;;;;;;;;5001532;28;20137;-50
2021/03/06 09:45:17;;;;;;;11.43;7.35;;;;;;;;;;5007371;28;20025;-50
2021/03/06 09:47:43;;;;;;;14.82;6.93;;;;;;;;;;4994857;28;20030;-49
2021/03/06 09:50:09;;;;;;;13.27;7.85;;;;;;;;;;4990872;28;20037;-50
2021/03/06 09:52:35;;;;;;;16.05;6.75;;;;;;;;;;5002778;28;20025;-53
2021/03/06 09:55:01;;;;;;;15.90;6.07;;;;;;;;;;5004565;28;20033;-49
2021/03/06 09:57:26;;;;;;;10.30;6.07;;;;;;;;;;5001559;28;20060;-50
2021/03/06 09:59:52;;;;;;;13.57;6.38;;;;;;;;;;4999555;28;20483;-50
2021/03/06 10:02:22;;;;;;;12.68;6.03;;;;;;;;;;5002113;28;20402;-50
2021/03/06 10:04:49;;;;;;;13.35;6.95;;;;;;;;;;4999276;28;20030;-50
2021/03/06 10:07:14;;;;;;;8.63;4.20;;;;;;;;;;5000829;28;20387;-50
2021/03/06 10:09:39;;;;;;;11.68;7.28;;;;;;;;;;4990862;28;20060;-50
2021/03/06 10:12:06;;;;;;;11.13;5.00;;;;;;;;;;5009241;28;20030;-50
2021/03/06 10:14:31;;;;;;;12.38;7.82;;;;;;;;;;5002011;28;20511;-49
2021/03/06 10:17:01;;;;;;;12.32;5.60;;;;;;;;;;5011628;28;20028;-50
2021/03/06 10:19:28;;;;;;;9.43;6.10;;;;;;;;;;5001016;28;20049;-50
2021/03/06 10:22:03;;;;;;;13.27;6.40;;;;;;;;;;5002577;28;20026;-50
2021/03/06 10:24:30;;;;;;;8.82;6.18;;;;;;;;;;5003970;28;20573;-50
2021/03/06 10:26:56;;;;;;;21.17;8.75;;;;;;;;;;5009984;28;20025;-49
2021/03/06 10:29:22;;;;;;;16.33;7.80;;;;;;;;;;5006023;28;20076;-51
2021/03/06 10:32:14;;;;;;;10.43;7.05;;;;;;;;;;4997878;28;20145;-49
2021/03/06 10:34:41;;;;;;;15.30;5.60;;;;;;;;;;5032774;28;20478;-50
2021/03/06 10:37:10;;;;;;;13.82;7.13;;;;;;;;;;5007740;28;20057;-50
2021/03/06 10:39:52;;;;;;;10.27;5.70;;;;;;;;;;5006578;28;20031;-50
2021/03/06 10:42:18;;;;;;;13.90;11.18;;;;;;;;;;5006557;28;20029;-50
2021/03/06 10:44:44;;;;;;;14.25;12.35;;;;;;;;;;5003849;28;20390;-50
2021/03/06 10:47:09;;;;;;;19.65;10.55;;;;;;;;;;5005753;28;20112;-50
2021/03/06 10:49:38;;;;;;;14.63;11.80;;;;;;;;;;5001674;28;20040;-50
2021/03/06 10:52:05;;;;;;;17.70;12.07;;;;;;;;;;5003290;28;20038;-50
2021/03/06 10:54:45;;;;;;;17.88;11.55;;;;;;;;;;5011813;28;20046;-50
2021/03/06 10:57:10;;;;;;;14.83;11.77;;;;;;;;;;5009415;28;20479;-50
2021/03/06 10:59:36;;;;;;;18.98;10.73;;;;;;;;;;5003271;28;20032;-49
2021/03/06 11:02:01;;;;;;;16.73;10.05;;;;;;;;;;5009765;28;20026;-50
2021/03/06 11:04:31;;;;;;;15.85;9.85;;;;;;;;;;5005819;28;20033;-49
2021/03/06 11:06:57;;;;;;;30.65;11.60;;;;;;;;;;5003325;28;20046;-51
2021/03/06 11:09:24;;;;;;;17.27;10.25;;;;;;;;;;4997549;28;20053;-50
2021/03/06 11:11:49;;;;;;;13.95;8.80;;;;;;;;;;4996973;28;20018;-49
2021/03/06 11:14:25;;;;;;;12.85;9.07;;;;;;;;;;4996490;28;20041;-49
2021/03/06 11:16:51;;;;;;;19.00;9.77;;;;;;;;;;5002570;28;20025;-50
2021/03/06 11:19:16;;;;;;;12.80;9.85;;;;;;;;;;5004668;28;20022;-50
2021/03/06 11:21:41;;;;;;;16.60;9.77;;;;;;;;;;4997801;28;20394;-50
2021/03/06 11:24:08;;;;;;;15.80;9.43;;;;;;;;;;5000802;28;20026;-49
2021/03/06 11:26:35;;;;;;;15.98;10.02;;;;;;;;;;5013017;28;20510;-49
2021/03/06 11:29:00;;;;;;;12.48;10.43;;;;;;;;;;5013639;28;20036;-49
2021/03/06 11:31:26;;;;;;;14.25;8.57;;;;;;;;;;5001526;28;20034;-50
2021/03/06 11:33:51;;;;;;;16.45;13.60;;;;;;;;;;5005914;28;20036;-50
2021/03/06 11:36:17;;;;;;;12.02;9.30;;;;;;;;;;5012384;28;20030;-50
2021/03/06 11:38:42;;;;;;;13.93;7.63;;;;;;;;;;4997803;28;20028;-50
2021/03/06 11:41:07;;;;;;;13.55;10.02;;;;;;;;;;5000764;28;20563;-50
2021/03/06 11:43:33;;;;;;;12.95;9.70;;;;;;;;;;4997003;28;20034;-50
2021/03/06 11:45:59;;;;;;;13.52;9.27;;;;;;;;;;4994501;28;20091;-49
2021/03/06 11:48:24;;;;;;;16.30;10.65;;;;;;;;;;4997014;28;20030;-49
2021/03/06 11:50:50;;;;;;;16.88;10.40;;;;;;;;;;5010839;28;20075;-50
2021/03/06 11:53:15;;;;;;;17.17;11.27;;;;;;;;;;4999843;28;20549;-50
2021/03/06 11:55:41;;;;;;;14.50;8.00;;;;;;;;;;5001766;28;20035;-50
2021/03/06 11:58:06;;;;;;;17.08;7.35;;;;;;;;;;4997456;28;20031;-49
2021/03/06 12:00:33;;;;;;;9.88;6.43;;;;;;;;;;5000707;28;20461;-50
2021/03/06 12:02:58;;;;;;;11.50;6.70;;;;;;;;;;5010537;28;20109;-49
2021/03/06 12:05:23;;;;;;;16.60;7.68;;;;;;;;;;4994740;28;20058;-49
2021/03/06 12:07:50;;;;;;;12.95;6.95;;;;;;;;;;5006694;28;20034;-49
2021/03/06 12:10:17;;;;;;;14.40;6.30;;;;;;;;;;5010588;28;20080;-50
2021/03/06 12:12:44;;;;;;;11.23;6.65;;;;;;;;;;5002562;28;20026;-50
2021/03/06 12:15:10;;;;;;;15.18;7.22;;;;;;;;;;4996318;28;20039;-50
2021/03/06 12:17:35;;;;;;;17.17;7.90;;;;;;;;;;5035248;28;20037;-50
2021/03/06 12:20:01;;;;;;;16.58;6.82;;;;;;;;;;5011720;28;20026;-50
2021/03/06 12:22:26;;;;;;;11.82;8.18;;;;;;;;;;5008864;28;20578;-50
2021/03/06 12:24:52;;;;;;;12.68;6.72;;;;;;;;;;5010233;28;20072;-50
2021/03/06 12:27:17;;;;;;;13.07;7.30;;;;;;;;;;5011293;28;20034;-49
2021/03/06 12:29:42;;;;;;;10.48;6.93;;;;;;;;;;5009802;28;20072;-50
2021/03/06 12:32:08;;;;;;;11.95;7.93;;;;;;;;;;5005469;28;20382;-50
2021/03/06 12:34:34;;;;;;;12.40;7.25;;;;;;;;;;5010859;28;20044;-49
2021/03/06 12:36:59;;;;;;;9.85;6.10;;;;;;;;;;5003992;28;20026;-49
2021/03/06 12:39:25;;;;;;;14.88;8.73;;;;;;;;;;5005647;28;20037;-45
2021/03/06 12:41:52;;;;;;;14.43;6.25;;;;;;;;;;5002841;28;20053;-46
2021/03/06 12:44:18;;;;;;;11.20;6.38;;;;;;;;;;5009273;28;20431;-46
2021/03/06 12:46:43;;;;;;;12.25;5.72;;;;;;;;;;4998171;28;20028;-45
2021/03/06 12:49:09;;;;;;;12.48;6.07;;;;;;;;;;4999878;28;20037;-45
2021/03/06 12:51:35;;;;;;;12.50;5.93;;;;;;;;;;5002117;28;20040;-45
2021/03/06 12:54:00;;;;;;;11.43;5.45;;;;;;;;;;5008077;28;20029;-45
2021/03/06 12:56:25;;;;;;;11.95;6.70;;;;;;;;;;4993990;28;20036;-45
2021/03/06 12:58:51;;;;;;;12.35;5.38;;;;;;;;;;5010066;28;20038;-46
2021/03/06 13:01:16;;;;;;;33.15;16.73;;;;;;;;;;5007331;28;20505;-46
2021/03/06 13:03:42;;;;;;;52.40;29.05;;;;;;;;;;5009021;28;20120;-46
2021/03/06 13:06:07;;;;;;;17.92;8.85;;;;;;;;;;5008343;28;20048;-45
2021/03/06 13:08:32;;;;;;;17.13;7.60;;;;;;;;;;5008691;28;20025;-44
2021/03/06 13:10:58;;;;;;;17.60;6.68;;;;;;;;;;5007501;28;20018;-45
2021/03/06 13:13:23;;;;;;;15.80;7.05;;;;;;;;;;5006825;28;20026;-45
2021/03/06 13:15:49;;;;;;;13.00;7.18;;;;;;;;;;5009219;28;20038;-45
2021/03/06 13:18:15;;;;;;;20.52;8.15;;;;;;;;;;5009189;28;20030;-47
2021/03/06 13:20:40;;;;;;;18.45;6.93;;;;;;;;;;5007584;28;20025;-45
2021/03/06 13:23:06;;;;;;;13.10;7.53;;;;;;;;;;5009686;28;20037;-45
2021/03/06 13:25:31;;;;;;;17.15;6.55;;;;;;;;;;5008525;28;20041;-45
2021/03/06 13:27:57;;;;;;;15.75;6.82;;;;;;;;;;5002752;28;20026;-45
2021/03/06 13:30:22;;;;;;;12.13;7.00;;;;;;;;;;5001460;28;20038;-46
2021/03/06 13:32:48;;;;;;;14.75;7.30;;;;;;;;;;5008454;28;20025;-45
2021/03/06 13:35:13;;;;;;;19.65;10.75;;;;;;;;;;5008045;28;20120;-45
2021/03/06 13:37:39;;;;;;;13.90;7.30;;;;;;;;;;5007211;28;20026;-46
2021/03/06 13:40:06;;;;;;;16.15;8.15;;;;;;;;;;5005503;28;20453;-46
2021/03/06 13:42:31;;;;;;;14.13;7.32;;;;;;;;;;5003357;28;20040;-46
2021/03/06 13:44:56;;;;;;;13.95;7.25;;;;;;;;;;4991445;28;20038;-46
2021/03/06 13:47:22;;;;;;;14.18;6.93;;;;;;;;;;5007379;28;20033;-45
2021/03/06 13:49:47;;;;;;;14.25;6.65;;;;;;;;;;4994517;28;20533;-45
2021/03/06 13:52:13;;;;;;;14.95;7.20;;;;;;;;;;4994690;28;20504;-45
2021/03/06 13:54:38;;;;;;;15.40;6.80;;;;;;;;;;4999660;28;20045;-44
2021/03/06 13:57:05;;;;;;;14.23;7.18;;;;;;;;;;4995681;28;20030;-45
2021/03/06 13:59:30;;;;;;;11.90;6.43;;;;;;;;;;5008810;28;20038;-44
2021/03/06 14:01:56;;;;;;;13.38;6.50;;;;;;;;;;5010461;28;20441;-45
2021/03/06 14:04:21;;;;;;;19.23;7.05;;;;;;;;;;4999745;28;20360;-45
2021/03/06 14:06:48;;;;;;;14.77;7.10;;;;;;;;;;4999116;28;20093;-45
2021/03/06 14:09:13;;;;;;;16.70;6.63;;;;;;;;;;5001997;28;20490;-45
2021/03/06 14:11:39;;;;;;;10.65;5.97;;;;;;;;;;4993410;28;20036;-45
2021/03/06 14:14:04;;;;;;;13.65;6.82;;;;;;;;;;4996282;28;20084;-44
2021/03/06 14:16:30;;;;;;;11.45;5.95;;;;;;;;;;4994414;28;20035;-45
2021/03/06 14:18:55;;;;;;;14.57;6.57;;;;;;;;;;4996804;28;20076;-45
2021/03/06 14:21:20;;;;;;;10.75;6.15;;;;;;;;;;4998127;28;20551;-45
2021/03/06 14:23:46;;;;;;;11.80;6.47;;;;;;;;;;4994300;28;20041;-45
2021/03/06 14:26:11;;;;;;;9.75;5.88;;;;;;;;;;5004834;28;20033;-46
2021/03/06 14:28:37;;;;;;;13.05;6.47;;;;;;;;;;4994163;28;20026;-45
2021/03/06 14:31:02;;;;;;;17.02;6.10;;;;;;;;;;4994067;28;20089;-46
2021/03/06 14:33:27;;;;;;;12.23;5.40;;;;;;;;;;4993691;28;20081;-45
2021/03/06 14:35:53;;;;;;;9.00;6.53;;;;;;;;;;5000216;28;20034;-45
2021/03/06 14:38:19;;;;;;;11.65;6.18;;;;;;;;;;5005443;28;20037;-45
2021/03/06 14:40:44;;;;;;;11.40;6.05;;;;;;;;;;4995062;28;20031;-46